Airfield :







YOU CAN JOIN US ON...

 
LOGIN :

Register | Disclaimer

   EN    FR    IT 

 









Legend :    VFR   Marginal VFR   IFR   Intensive IFR   Very Intensive IFR
Visi :
Ceiling :
>= 8 km
>= 3000ft
5 to 8 km
1000 to 3000 ft
1500m to 5 km
500 to 1000 ft
800 to 1500m
200 to 500 ft
< 800m
< 200 ft
Symbols :   Thunderstorms  Fog  Heavy snow  Heavy precipitations  Wind > 20 kt






- Airport Elevation : 107 ft


KBVY - Beverly Municipal

CURRENT METAR :
  • 271353Z 18009G23KT 2SM -RA BR OVC003 07/06 A2926 RMK AO2 PK WND 13029/1308 SLP905 P0011 T00720061

EXPIRED METARs :
  • 271312Z 12017G29KT 3SM -RA BR OVC004 07/06 A2928 RMK AO2 PK WND 13029/1308 P0005 T00720056
  • 271301Z 12019G29KT 1 3/4SM RA BR OVC004 07/06 A2929 RMK AO2 PK WND 13029/1259 P0003 T00720056
  • 271253Z 12016G28KT 2SM -RA BR OVC004 07/06 A2929 RMK AO2 PK WND 12028/1247 SLP916 P0020 T00720056
  • 271246Z 12015G24KT 1 3/4SM -RA BR OVC004 07/06 A2930 RMK AO2 P0019 T00720056
  • 271218Z 11014G25KT 2 1/2SM -RA BR OVC004 07/06 A2933 RMK AO2 PRESFR P0011 T00720056
  • 271203Z 12016G24KT 1 3/4SM RA BR OVC004 07/06 A2935 RMK AO2 P0007 T00670056
  • 271153Z 11017G23KT 3SM RA BR OVC004 07/06 A2935 RMK AO2 PK WND 10029/1109 SLP936 P0019 60073 70073 T00670056 10067 20056 56080

TAF N/A



MET'MAP, your aeronautical weather chart ! - Copyright ORBIFLY December 2007 - Disclaimer

ORBIFLY MET'MAP TEAM :

Programming & Development : Alexandra Zaïnal
Concept & original design : Baudouin d'Aumeries
Assistance for programming : Marc-Olivier Méhu
Technical & hardware support : Manuel Goepfert

Contact : metmap@orbifly.com




SOURCES & CREDITS :

   NOAA